Kezdőlap
METAR-TAF:

METAR-TAF

Repülőterek :

Szliács, Szlovákia

földrajzi szélesség: 48-38-17N, földrajzi hosszúság: 019-08-03E, magasság: 318 m

Jelenlegi meteorológiai megfigyelések

A jelentés 32 perccel ezelõtt készült, 17:00 UTC
Észak-északkeleti szél 4 kt, északi és kelet-északkeleti között változik
Hőmérséklet -6°C
Páratartalom 41%
Légköri nyomás 1020 hPa
Látótávolság 10 km, vagy több
felhőtlen 1500 m magasságban, és nincs gomolyfelhõ

METAR: LZSL 251700Z 03004KT 010V070 CAVOK M06/M17 Q1020

Idő: 18:32 (17:32 UTC)

Előrejelzés

A jelentés 3 órával és 32 perccel ezelõtt készült, 14:00 UTC
Az előrejelzés 25-én 15 óra UTC és 26-én 00 óra UTC között érvényes
Északi szél 4 kt
Látótávolság 10 km, vagy több
felhőtlen 1500 m magasságban, és nincs gomolyfelhõ

TAF: LZSL 251400Z 2515/2600 01004KT CAVOK

Meteorológiai megfigyelések és előrejelzések több, mint 4000 repülőtéren (METAR és TAF jelentéseket).

A térképen piros és sárga pontok jelzik az elérhető meteorológiai állomásokat.

Mozgassa az egeret a pont fölött, hogy megjelenjen az állomás neve.

Azután kattintson az időjárási megfigyelések és előrejelzések megtekintéséhez.

A térkép megváltoztatása: kattintson a fekete keresztel jelölt zöld gombra ráközelítéshez, a vonallal jelölt zöld gombra távolításhoz, vagy a zöld nyilakra a szomszédos térképek eléréséhez.


METAR-TAF: